createdAt,value
2022-08-12T00:00:01.668Z,59.46
2022-08-12T00:05:01.578Z,58.73
2022-08-12T00:10:01.849Z,60.93
2022-08-12T00:15:01.459Z,61.46
2022-08-12T00:20:01.371Z,62.06
2022-08-12T00:25:01.333Z,61.53
2022-08-12T00:30:01.241Z,62.80
2022-08-12T00:35:01.170Z,61.86
2022-08-12T00:40:02.133Z,62.40
2022-08-12T00:45:01.051Z,61.56
2022-08-12T00:50:00.973Z,61.96
2022-08-12T00:55:00.937Z,64.14
2022-08-12T01:00:00.862Z,66.45
2022-08-12T01:05:00.773Z,67.60
2022-08-12T01:10:00.720Z,67.29
2022-08-12T01:15:00.824Z,66.96
2022-08-12T01:20:00.616Z,63.40
2022-08-12T01:25:00.518Z,63.37
2022-08-12T01:30:00.465Z,61.50
2022-08-12T01:35:00.406Z,60.44
2022-08-12T01:40:36.991Z,59.30
2022-08-12T01:45:01.260Z,61.10
2022-08-12T01:50:00.186Z,63.81
2022-08-12T01:55:00.146Z,60.77
2022-08-12T02:00:00.070Z,62.40
2022-08-12T02:04:59.988Z,63.73
2022-08-12T02:09:59.957Z,62.46
2022-08-12T02:14:59.857Z,64.67
2022-08-12T02:20:00.047Z,66.18
2022-08-12T02:24:59.737Z,66.55
2022-08-12T02:29:59.668Z,64.70
2022-08-12T02:34:59.598Z,64.04
2022-08-12T02:39:59.566Z,64.61
2022-08-12T02:44:59.467Z,66.58
2022-08-12T02:49:59.413Z,66.69
2022-08-12T02:54:59.332Z,67.19
2022-08-12T02:59:59.291Z,66.05
2022-08-12T03:04:59.203Z,67.83
2022-08-12T03:10:04.532Z,66.96
2022-08-12T03:15:00.078Z,66.82
2022-08-12T03:20:09.925Z,70.42
2022-08-12T03:25:00.131Z,65.38
2022-08-12T03:29:58.880Z,68.00
2022-08-12T03:34:58.811Z,64.44
2022-08-12T03:39:58.816Z,66.69
2022-08-12T03:44:58.690Z,70.05
2022-08-12T03:49:58.610Z,72.04
2022-08-12T03:54:58.532Z,72.65
2022-08-12T03:59:58.513Z,72.34
2022-08-12T04:04:58.402Z,70.22
2022-08-12T04:09:58.346Z,70.45
2022-08-12T04:14:58.294Z,72.92
2022-08-12T04:19:58.229Z,72.72
2022-08-12T04:24:58.294Z,71.30
2022-08-12T04:30:16.710Z,71.60
2022-08-12T04:34:59.045Z,71.37
2022-08-12T04:39:57.965Z,72.68
2022-08-12T04:44:57.862Z,73.39
2022-08-12T04:49:57.794Z,70.76
2022-08-12T04:54:57.732Z,64.86
2022-08-12T04:59:57.676Z,55.80
2022-08-12T05:05:00.670Z,50.54
2022-08-12T05:10:00.248Z,48.21
2022-08-12T05:14:57.476Z,45.93
2022-08-12T05:19:57.996Z,44.37
2022-08-12T05:24:57.339Z,43.74
2022-08-12T05:30:06.371Z,43.00
2022-08-12T05:34:58.409Z,43.32
2022-08-12T05:39:57.279Z,42.27
2022-08-12T05:44:57.104Z,41.24
2022-08-12T05:49:57.085Z,39.04
2022-08-12T05:54:58.011Z,39.83
2022-08-12T05:59:56.917Z,38.47
2022-08-12T06:04:56.866Z,37.27
2022-08-12T06:09:56.821Z,37.37
2022-08-12T06:14:56.740Z,37.27
2022-08-12T06:20:27.397Z,37.07
2022-08-12T06:24:57.667Z,37.29
2022-08-12T06:30:09.733Z,37.80
2022-08-12T06:35:24.010Z,38.82
2022-08-12T06:40:02.999Z,37.66
2022-08-12T06:44:57.372Z,36.94
2022-08-12T06:49:56.309Z,36.65
2022-08-12T06:54:56.243Z,37.47
2022-08-12T06:59:56.229Z,38.00
2022-08-12T07:04:56.133Z,40.58
2022-08-12T07:10:06.169Z,44.18
2022-08-12T07:14:57.007Z,45.78
2022-08-12T07:20:00.520Z,49.40
2022-08-12T07:24:56.875Z,52.47
2022-08-12T07:30:03.669Z,52.64
2022-08-12T07:34:56.741Z,52.25
2022-08-12T07:39:59.612Z,53.32
2022-08-12T07:44:55.656Z,52.87
2022-08-12T07:50:04.270Z,50.57
2022-08-12T07:54:56.492Z,47.69
2022-08-12T07:59:55.873Z,45.98
2022-08-12T08:04:55.393Z,42.46
2022-08-12T08:09:59.157Z,41.14
2022-08-12T08:14:55.255Z,40.74
2022-08-12T08:20:04.008Z,42.01
2022-08-12T08:24:56.097Z,41.02
2022-08-12T08:29:55.050Z,39.76
2022-08-12T08:34:55.060Z,40.05
2022-08-12T08:39:54.994Z,39.72
2022-08-12T08:44:58.291Z,39.62
2022-08-12T08:49:55.055Z,40.21
2022-08-12T08:54:54.742Z,39.40
2022-08-12T08:59:54.678Z,38.49
2022-08-12T09:05:11.974Z,38.48
2022-08-12T09:14:55.499Z,38.30
2022-08-12T09:19:58.138Z,39.84
2022-08-12T09:24:54.392Z,39.65
2022-08-12T09:30:11.803Z,40.19
2022-08-12T09:34:55.248Z,41.31
2022-08-12T09:40:06.163Z,42.96
2022-08-12T09:45:18.218Z,42.54
2022-08-12T09:49:57.827Z,43.16
2022-08-12T09:54:59.825Z,44.39
2022-08-12T10:00:15.874Z,45.23
2022-08-12T10:04:54.908Z,45.84
2022-08-12T10:09:57.893Z,46.34
2022-08-12T10:14:54.750Z,46.16
2022-08-12T10:19:53.664Z,46.44
2022-08-12T10:24:53.665Z,46.44
2022-08-12T10:30:38.460Z,46.44
2022-08-12T10:34:57.221Z,44.37
2022-08-12T10:40:07.072Z,41.22
2022-08-12T10:44:54.395Z,41.73
2022-08-12T10:50:02.958Z,42.54
2022-08-12T10:54:54.227Z,42.30
2022-08-12T11:00:35.057Z,41.69
2022-08-12T11:04:54.794Z,40.56
2022-08-12T11:10:00.646Z,40.35
2022-08-12T11:14:54.014Z,41.06
2022-08-12T11:19:52.924Z,39.28
2022-08-12T11:24:55.241Z,40.61
2022-08-12T11:30:06.469Z,39.38
2022-08-12T11:34:54.838Z,39.48
2022-08-12T11:44:53.574Z,41.44
2022-08-12T11:49:52.492Z,39.72
2022-08-12T11:54:54.343Z,39.79
2022-08-12T12:04:53.922Z,40.42
2022-08-12T12:09:53.969Z,39.91
2022-08-12T12:14:54.705Z,40.94
2022-08-12T12:19:52.140Z,40.72
2022-08-12T12:24:52.063Z,40.62
2022-08-12T12:30:18.044Z,39.54
2022-08-12T12:35:14.227Z,40.42
2022-08-12T12:39:55.176Z,40.41
2022-08-12T12:44:53.472Z,39.89
2022-08-12T12:49:53.547Z,38.90
2022-08-12T12:54:51.667Z,37.82
2022-08-12T12:59:55.983Z,37.80
2022-08-12T13:04:52.768Z,38.90
2022-08-12T13:09:52.413Z,37.90
2022-08-12T13:14:51.425Z,38.28
2022-08-12T13:19:51.338Z,38.49
2022-08-12T13:24:54.932Z,38.69
2022-08-12T13:29:51.217Z,37.90
2022-08-12T13:34:52.010Z,38.49
2022-08-12T13:39:51.102Z,38.08
2022-08-12T13:44:51.168Z,36.60
2022-08-12T13:49:54.452Z,37.19
2022-08-12T13:54:56.429Z,37.78
2022-08-12T13:59:55.412Z,38.61
2022-08-12T14:04:55.902Z,40.11
2022-08-12T14:09:51.941Z,39.24
2022-08-12T14:14:50.639Z,38.94
2022-08-12T14:19:52.983Z,38.43
2022-08-12T14:24:52.452Z,38.61
2022-08-12T14:30:05.624Z,38.81
2022-08-12T14:34:51.425Z,37.72
2022-08-12T14:39:50.696Z,38.13
2022-08-12T14:45:00.108Z,38.31
2022-08-12T14:50:41.320Z,37.62
2022-08-12T14:59:57.093Z,37.03
2022-08-12T15:04:50.996Z,36.83
2022-08-12T15:09:49.947Z,37.45
2022-08-12T15:14:50.215Z,37.32
2022-08-12T15:20:31.153Z,37.23
2022-08-12T15:24:50.769Z,37.64
2022-08-12T15:29:52.295Z,38.73
2022-08-12T15:34:49.867Z,39.12
2022-08-12T15:39:55.281Z,38.04
2022-08-12T15:44:50.515Z,37.64
2022-08-12T15:49:54.418Z,38.43
2022-08-12T15:54:50.359Z,37.64
2022-08-12T16:00:00.758Z,41.20
2022-08-12T16:04:50.354Z,39.93
2022-08-12T16:09:56.103Z,39.93
2022-08-12T16:14:50.205Z,39.14
2022-08-12T16:20:03.829Z,39.34
2022-08-12T16:24:50.722Z,37.38
2022-08-12T16:29:53.036Z,38.17
2022-08-12T16:34:54.879Z,39.26
2022-08-12T16:39:57.370Z,38.47
2022-08-12T16:44:49.867Z,39.08
2022-08-12T16:49:48.653Z,37.89
2022-08-12T16:54:48.606Z,38.19
2022-08-12T16:59:54.349Z,38.39
2022-08-12T17:04:51.684Z,38.98
2022-08-12T17:09:48.431Z,39.18
2022-08-12T17:14:53.018Z,39.29
2022-08-12T17:20:29.244Z,39.40
2022-08-12T17:24:54.678Z,40.11
2022-08-12T17:30:03.798Z,40.31
2022-08-12T17:34:49.113Z,40.01
2022-08-12T17:40:12.180Z,40.90
2022-08-12T17:44:48.944Z,40.23
2022-08-12T17:50:02.223Z,40.92
2022-08-12T17:54:48.819Z,40.82
2022-08-12T17:59:49.520Z,40.62
2022-08-12T18:05:04.823Z,41.14
2022-08-12T18:09:48.627Z,41.53
2022-08-12T18:14:47.897Z,42.45
2022-08-12T18:20:06.320Z,41.85
2022-08-12T18:24:48.602Z,42.66
2022-08-12T18:29:47.362Z,42.49
2022-08-12T18:34:52.687Z,43.18
2022-08-12T18:39:48.326Z,44.00
2022-08-12T18:44:47.165Z,44.81
2022-08-12T18:49:47.086Z,45.01
2022-08-12T18:54:53.313Z,45.23
2022-08-12T19:00:01.304Z,45.45
2022-08-12T19:04:47.950Z,46.25
2022-08-12T19:09:58.826Z,46.67
2022-08-12T19:14:47.773Z,47.09
2022-08-12T19:19:46.708Z,47.29
2022-08-12T19:24:46.657Z,47.47
2022-08-12T19:30:06.555Z,48.07
2022-08-12T19:35:54.034Z,47.19
2022-08-12T19:40:09.045Z,47.21
2022-08-12T19:44:47.451Z,48.33
2022-08-12T19:49:46.312Z,48.46
2022-08-12T19:54:56.342Z,49.55
2022-08-12T20:00:03.590Z,49.27
2022-08-12T20:04:47.113Z,49.40
2022-08-12T20:09:47.055Z,51.25
2022-08-12T20:14:46.003Z,50.92
2022-08-12T20:20:01.342Z,51.25
2022-08-12T20:24:46.854Z,52.17
2022-08-12T20:29:46.375Z,51.72
2022-08-12T20:34:45.851Z,51.29
2022-08-12T20:39:57.479Z,51.10
2022-08-12T20:44:46.606Z,51.29
2022-08-12T20:49:45.519Z,51.20
2022-08-12T20:54:45.476Z,49.95
2022-08-12T20:59:48.080Z,50.37
2022-08-12T21:04:45.359Z,50.37
2022-08-12T21:09:45.252Z,51.72
2022-08-12T21:14:53.266Z,51.92
2022-08-12T21:19:51.815Z,52.44
2022-08-12T21:24:46.472Z,52.62
2022-08-12T21:29:50.008Z,52.09
2022-08-12T21:34:45.936Z,51.89
2022-08-12T21:39:51.827Z,51.47
2022-08-12T21:45:48.403Z,51.57
2022-08-12T21:49:55.500Z,53.44
2022-08-12T21:54:45.669Z,55.94
2022-08-12T21:59:44.608Z,57.28
2022-08-12T22:04:49.626Z,58.03
2022-08-12T22:09:45.479Z,58.76
2022-08-12T22:14:44.423Z,60.10
2022-08-12T22:19:44.490Z,59.36
2022-08-12T22:24:44.280Z,59.59
2022-08-12T22:29:44.210Z,59.89
2022-08-12T22:34:44.406Z,58.50
2022-08-12T22:39:44.858Z,60.27
2022-08-12T22:44:54.086Z,60.80
2022-08-12T22:49:53.068Z,59.20
2022-08-12T22:55:00.029Z,59.23
2022-08-12T22:59:55.247Z,58.20
2022-08-12T23:04:44.734Z,60.29
2022-08-12T23:09:45.006Z,62.39
2022-08-12T23:14:44.614Z,59.99
2022-08-12T23:19:45.847Z,59.23
2022-08-12T23:24:56.053Z,61.22
2022-08-12T23:30:17.348Z,59.33
2022-08-12T23:34:47.838Z,59.66
2022-08-12T23:40:14.524Z,59.86
2022-08-12T23:44:44.250Z,61.96
2022-08-12T23:49:58.616Z,64.56
2022-08-12T23:54:44.613Z,65.36
2022-08-12T23:59:43.573Z,64.00
